Time;durP1;ratioP1;P1;durP2;ratioP2;P2;SDS_P1;SDS_P2;PMS_P1;PMS_P2;Temp;Humidity;BMP_temperature;BMP_pressure;BME280_temperature;BME280_humidity;BME280_pressure;Samples;Min_cycle;Max_cycle;Signal;HPM_P1;HPM_P2
2022/10/12 00:00:38;;;;;;;21.10;7.58;;;;;;;4.44;100.00;101307.58;1722073;82;21521;-74
2022/10/12 00:03:04;;;;;;;17.85;8.00;;;;;;;4.40;100.00;101296.55;1718152;82;21061;-74
2022/10/12 00:05:32;;;;;;;18.90;7.53;;;;;;;4.39;100.00;101294.00;1736648;82;21108;-74
2022/10/12 00:07:59;;;;;;;14.65;7.22;;;;;;;4.37;100.00;101296.98;1685583;83;21030;-74
2022/10/12 00:10:26;;;;;;;18.55;6.58;;;;;;;4.33;100.00;101301.69;1727256;82;21069;-74
2022/10/12 00:12:53;;;;;;;19.12;6.50;;;;;;;4.32;100.00;101302.13;1722587;82;21587;-74
2022/10/12 00:15:20;;;;;;;16.42;6.50;;;;;;;4.32;100.00;101301.25;1701084;82;21064;-74
2022/10/12 00:17:47;;;;;;;17.57;6.08;;;;;;;4.30;100.00;101302.55;1712818;82;21405;-74
2022/10/12 00:20:14;;;;;;;19.05;6.85;;;;;;;4.27;100.00;101295.34;1727124;82;21037;-73
2022/10/12 00:22:41;;;;;;;20.43;6.85;;;;;;;4.23;100.00;101298.77;1719274;82;21049;-74
2022/10/12 00:25:09;;;;;;;18.02;6.65;;;;;;;4.17;100.00;101303.02;1709865;82;21080;-73
2022/10/12 00:27:36;;;;;;;14.18;6.45;;;;;;;4.12;100.00;101300.11;1729649;82;21522;-74
2022/10/12 00:30:04;;;;;;;18.20;6.60;;;;;;;4.03;100.00;101300.97;1734426;82;21030;-74
2022/10/12 00:32:32;;;;;;;15.58;6.78;;;;;;;3.98;100.00;101306.09;1715444;82;21522;-74
2022/10/12 00:34:59;;;;;;;18.82;7.25;;;;;;;3.93;100.00;101303.97;1703916;82;21058;-74
2022/10/12 00:37:26;;;;;;;14.87;6.65;;;;;;;3.86;100.00;101306.14;1716157;82;21033;-74
2022/10/12 00:39:52;;;;;;;15.40;6.55;;;;;;;3.81;100.00;101305.30;1713276;82;21030;-74
2022/10/12 00:42:20;;;;;;;14.25;6.37;;;;;;;3.78;100.00;101307.44;1726516;82;21045;-73
2022/10/12 00:44:50;;;;;;;14.07;6.03;;;;;;;3.75;100.00;101304.91;1684664;83;21050;-74
2022/10/12 00:47:34;;;;;;;14.03;6.10;;;;;;;3.71;100.00;101302.36;1700882;82;21073;-74
2022/10/12 00:50:29;;;;;;;13.50;6.45;;;;;;;3.66;100.00;101293.91;1724673;82;21620;-74
2022/10/12 00:53:05;;;;;;;;;;;;;;;3.61;100.00;101299.02;1720358;82;22215;-74
2022/10/12 00:55:37;;;;;;;14.35;6.33;;;;;;;3.57;100.00;101296.05;1703338;82;20164;-73
2022/10/12 00:58:07;;;;;;;13.68;5.92;;;;;;;3.53;100.00;101299.46;1694117;83;21045;-73
2022/10/12 01:00:36;;;;;;;16.48;6.42;;;;;;;3.49;100.00;101301.16;1709402;82;21072;-74
2022/10/12 01:03:06;;;;;;;12.70;5.83;;;;;;;3.47;100.00;101295.63;1708361;82;21060;-74
2022/10/12 01:05:33;;;;;;;13.65;5.55;;;;;;;3.45;100.00;101296.92;1728386;82;21620;-74
2022/10/12 01:08:01;;;;;;;11.30;5.45;;;;;;;3.42;100.00;101290.55;1720633;82;21026;-74
2022/10/12 01:10:28;;;;;;;16.82;5.50;;;;;;;3.41;100.00;101294.80;1710018;82;21120;-75
2022/10/12 01:12:56;;;;;;;14.07;5.47;;;;;;;3.37;100.00;101289.30;1701765;82;21049;-73
2022/10/12 01:15:28;;;;;;;13.28;6.25;;;;;;;3.36;100.00;101286.31;1723009;82;21097;-74
2022/10/12 01:18:06;;;;;;;19.50;6.08;;;;;;;3.36;100.00;101286.31;1712305;82;21026;-74
2022/10/12 01:20:59;;;;;;;13.65;5.80;;;;;;;3.32;100.00;101288.44;1703586;82;21521;-74
2022/10/12 01:23:39;;;;;;;10.60;5.17;;;;;;;3.28;100.00;101290.57;1703032;82;21069;-74
2022/10/12 01:26:52;;;;;;;12.00;6.15;;;;;;;3.24;100.00;101291.86;1699131;82;21042;-74
2022/10/12 01:29:50;;;;;;;14.40;6.30;;;;;;;3.21;100.00;101297.80;1708390;82;21652;-73
2022/10/12 01:32:24;;;;;;;15.63;6.60;;;;;;;3.16;100.00;101291.86;1695547;82;21069;-74
2022/10/12 01:35:09;;;;;;;13.05;6.05;;;;;;;3.14;100.00;101298.64;1714161;82;21042;-74
2022/10/12 01:38:00;;;;;;;12.33;5.70;;;;;;;3.09;100.00;101297.38;1692056;82;21529;-75
2022/10/12 01:40:35;;;;;;;16.48;6.03;;;;;;;3.06;100.00;101302.89;1700351;83;21069;-74
2022/10/12 01:43:02;;;;;;;15.40;6.00;;;;;;;2.99;100.00;101300.35;1730279;82;21216;-75
2022/10/12 01:45:30;;;;;;;13.50;5.85;;;;;;;2.98;100.00;101298.67;1730105;82;21120;-75
2022/10/12 01:47:58;;;;;;;15.78;6.33;;;;;;;2.97;100.00;101303.31;1725555;82;21088;-75
2022/10/12 01:50:34;;;;;;;13.95;6.17;;;;;;;2.93;100.00;101300.78;1716181;82;21041;-75
2022/10/12 01:53:15;;;;;;;11.63;5.62;;;;;;;2.90;100.00;101297.82;1679935;84;21169;-74
2022/10/12 01:55:51;;;;;;;15.90;6.50;;;;;;;2.90;100.00;101294.41;1726080;82;21085;-74
2022/10/12 01:58:40;;;;;;;13.62;5.95;;;;;;;2.90;100.00;101291.47;1716631;82;21093;-75
2022/10/12 02:01:28;;;;;;;15.05;5.85;;;;;;;2.89;100.00;101293.57;1701592;82;21635;-75
2022/10/12 02:04:14;;;;;;;13.48;5.67;;;;;;;2.90;100.00;101291.86;1685041;84;21523;-75
2022/10/12 02:06:57;;;;;;;;;;;;;;;2.87;100.00;101294.42;1663267;85;21918;-74
2022/10/12 02:09:28;;;;;;;13.75;5.47;;;;;;;2.85;100.00;101291.88;1708238;83;20470;-75
2022/10/12 02:12:01;;;;;;;12.63;5.58;;;;;;;2.82;100.00;101291.89;1718617;82;21452;-74
2022/10/12 02:14:43;;;;;;;13.83;5.30;;;;;;;2.79;100.00;101291.44;1721291;82;21103;-75
2022/10/12 02:17:14;;;;;;;15.00;5.85;;;;;;;2.75;100.00;101293.98;1701004;82;21026;-74
2022/10/12 02:19:49;;;;;;;17.35;6.00;;;;;;;2.70;100.00;101296.53;1706735;82;21487;-75
2022/10/12 02:22:17;;;;;;;13.38;5.87;;;;;;;2.67;100.00;101299.05;1714564;82;21030;-75
2022/10/12 02:24:47;;;;;;;11.78;5.30;;;;;;;2.67;100.00;101301.59;1702864;82;21057;-75
2022/10/12 02:27:16;;;;;;;10.05;5.03;;;;;;;2.68;100.00;101298.23;1701427;82;21030;-75
2022/10/12 02:29:46;;;;;;;13.28;5.45;;;;;;;2.69;100.00;101299.91;1698789;82;21033;-75
2022/10/12 02:32:24;;;;;;;11.75;4.90;;;;;;;2.70;100.00;101298.23;1733143;82;21092;-75
2022/10/12 02:35:26;;;;;;;11.25;4.87;;;;;;;2.73;100.00;101298.22;1695678;82;21073;-75
2022/10/12 02:38:13;;;;;;;10.08;5.00;;;;;;;2.70;100.00;101297.80;1714278;82;21393;-75
2022/10/12 02:40:56;;;;;;;9.45;5.03;;;;;;;2.72;100.00;101299.08;1678963;84;21564;-75
2022/10/12 02:43:46;;;;;;;11.53;4.95;;;;;;;2.60;100.00;101300.75;1692200;82;21168;-74
2022/10/12 02:46:15;;;;;;;9.50;4.37;;;;;;;2.60;100.00;101300.75;1712931;83;21049;-75
2022/10/12 02:48:45;;;;;;;10.40;4.42;;;;;;;2.56;100.00;101307.95;1736087;83;21493;-75
2022/10/12 02:51:15;;;;;;;11.48;4.42;;;;;;;2.50;100.00;101305.83;1722186;82;21544;-75
2022/10/12 02:53:44;;;;;;;11.33;4.87;;;;;;;2.38;100.00;101296.05;1697715;82;21029;-75
2022/10/12 02:56:13;;;;;;;12.85;5.20;;;;;;;2.38;100.00;101296.05;1735983;82;21059;-76
2022/10/12 02:58:43;;;;;;;12.15;4.97;;;;;;;2.36;100.00;101296.89;1723994;82;21034;-76
2022/10/12 03:01:11;;;;;;;13.93;5.15;;;;;;;2.37;100.00;101298.58;1719199;82;21591;-75
2022/10/12 03:03:38;;;;;;;14.25;5.17;;;;;;;2.40;100.00;101299.44;1704444;82;21006;-76
2022/10/12 03:06:06;;;;;;;11.97;5.17;;;;;;;2.41;100.00;101305.36;1713245;82;21114;-75
2022/10/12 03:08:33;;;;;;;13.55;4.80;;;;;;;2.33;100.00;101299.41;1717282;82;21041;-76
2022/10/12 03:11:05;;;;;;;10.78;4.50;;;;;;;2.28;100.00;101302.38;1718847;82;21611;-75
2022/10/12 03:13:31;;;;;;;10.70;5.03;;;;;;;2.28;100.00;101302.38;1685326;84;21027;-76
2022/10/12 03:16:08;;;;;;;10.93;5.10;;;;;;;2.26;100.00;101310.42;1679167;85;21023;-76
2022/10/12 03:18:37;;;;;;;11.50;5.20;;;;;;;2.24;100.00;101315.91;1679066;85;21511;-76
2022/10/12 03:21:04;;;;;;;9.25;4.75;;;;;;;2.18;100.00;101318.84;1673731;86;21562;-76
2022/10/12 03:23:32;;;;;;;11.00;5.05;;;;;;;2.13;100.00;101321.81;1678196;85;21566;-76
2022/10/12 03:25:59;;;;;;;11.70;5.42;;;;;;;2.01;100.00;101315.41;1679361;84;21066;-76
2022/10/12 03:28:26;;;;;;;12.98;5.20;;;;;;;1.99;100.00;101324.72;1674547;84;21130;-76
2022/10/12 03:30:53;;;;;;;11.33;5.50;;;;;;;1.97;100.00;101325.13;1715289;82;21042;-75
2022/10/12 03:33:20;;;;;;;11.53;5.28;;;;;;;1.94;100.00;101330.18;1726694;82;21044;-76
2022/10/12 03:35:47;;;;;;;12.70;5.30;;;;;;;1.91;100.00;101313.68;1718608;82;21057;-76
2022/10/12 03:38:15;;;;;;;11.38;5.47;;;;;;;1.86;100.00;101307.72;1715851;82;21070;-76
2022/10/12 03:40:42;;;;;;;14.60;5.87;;;;;;;1.86;100.00;101307.72;1726400;82;21510;-76
2022/10/12 03:43:09;;;;;;;12.15;5.15;;;;;;;1.87;100.00;101319.59;1729517;82;21020;-76
2022/10/12 03:45:37;;;;;;;9.43;5.15;;;;;;;1.97;100.00;101328.94;1727488;82;21128;-76
2022/10/12 03:48:05;;;;;;;12.07;4.95;;;;;;;1.97;100.00;101328.94;1731176;82;21302;-76
2022/10/12 03:50:34;;;;;;;13.83;5.85;;;;;;;1.96;100.00;101324.26;1721588;82;21021;-76
2022/10/12 03:53:03;;;;;;;11.90;5.45;;;;;;;1.98;100.00;101326.81;1722053;82;21108;-76
2022/10/12 03:55:33;;;;;;;13.15;5.97;;;;;;;1.95;100.00;101321.30;1720886;82;21817;-76
2022/10/12 03:58:00;;;;;;;11.33;5.50;;;;;;;1.94;100.00;101322.13;1724984;82;21054;-76
2022/10/12 04:00:28;;;;;;;12.88;6.05;;;;;;;1.94;100.00;101316.22;1723819;82;21038;-76
2022/10/12 04:02:56;;;;;;;11.28;5.62;;;;;;;1.96;100.00;101322.15;1731414;82;21022;-76
2022/10/12 04:05:23;;;;;;;13.80;6.08;;;;;;;1.96;100.00;101322.15;1726258;82;21146;-76
2022/10/12 04:07:50;;;;;;;12.78;5.47;;;;;;;1.94;100.00;101320.86;1718632;82;21057;-76
2022/10/12 04:10:18;;;;;;;14.03;6.65;;;;;;;1.90;100.00;101322.96;1726228;82;21041;-76
2022/10/12 04:12:45;;;;;;;15.48;6.30;;;;;;;1.88;100.00;101320.84;1724089;82;21045;-76
2022/10/12 04:15:13;;;;;;;9.83;5.22;;;;;;;1.91;100.00;101326.38;1721921;82;21564;-76
2022/10/12 04:17:40;;;;;;;17.87;5.65;;;;;;;1.92;100.00;101326.78;1723380;82;21576;-75
2022/10/12 04:20:09;;;;;;;13.28;5.90;;;;;;;1.95;100.00;101326.81;1736631;82;21026;-76
2022/10/12 04:22:37;;;;;;;12.68;5.87;;;;;;;1.99;100.00;101324.29;1728007;82;21010;-75
2022/10/12 04:25:05;;;;;;;13.00;6.12;;;;;;;2.03;100.00;101329.36;1723131;82;21069;-76
2022/10/12 04:27:32;;;;;;;15.13;5.67;;;;;;;2.04;100.00;101328.53;1720061;82;21025;-76
2022/10/12 04:29:59;;;;;;;16.20;6.55;;;;;;;2.03;100.00;101333.17;1725915;82;21498;-76
2022/10/12 04:32:26;;;;;;;15.60;6.33;;;;;;;2.02;100.00;101332.76;1730561;82;20997;-75
2022/10/12 04:34:53;;;;;;;16.30;6.45;;;;;;;2.02;100.00;101328.95;1722103;82;21057;-75
2022/10/12 04:37:20;;;;;;;15.90;6.53;;;;;;;2.02;100.00;101328.95;1726274;82;21541;-76
2022/10/12 04:39:47;;;;;;;13.48;5.87;;;;;;;2.03;100.00;101337.86;1727980;82;21061;-76
2022/10/12 04:42:14;;;;;;;9.63;5.28;;;;;;;2.09;100.00;101339.55;1726964;82;21022;-75
2022/10/12 04:44:41;;;;;;;13.93;5.70;;;;;;;2.09;100.00;101339.55;1726622;82;21030;-75
2022/10/12 04:47:09;;;;;;;16.27;6.35;;;;;;;2.13;100.00;101342.13;1731077;82;21026;-76
2022/10/12 04:49:38;;;;;;;15.18;6.30;;;;;;;2.15;100.00;101353.14;1722579;82;21101;-75
2022/10/12 04:52:05;;;;;;;12.20;6.10;;;;;;;2.17;100.00;101350.19;1732161;82;21493;-76
2022/10/12 04:54:32;;;;;;;16.57;6.53;;;;;;;2.24;100.00;101352.32;1728832;82;21034;-75
2022/10/12 04:56:59;;;;;;;15.72;6.87;;;;;;;2.29;100.00;101349.39;1729713;81;21107;-75
2022/10/12 04:59:26;;;;;;;13.20;6.70;;;;;;;2.35;100.00;101353.22;1730282;82;21034;-75
2022/10/12 05:01:53;;;;;;;15.75;7.83;;;;;;;2.46;100.00;101358.33;1727574;82;21046;-75
2022/10/12 05:04:20;;;;;;;15.08;7.80;;;;;;;2.56;100.00;101361.32;1717165;83;21511;-75
2022/10/12 05:06:47;;;;;;;14.80;7.45;;;;;;;2.67;100.00;101362.61;1737013;81;21068;-74
2022/10/12 05:09:15;;;;;;;15.10;7.40;;;;;;;2.79;100.00;101360.09;1752082;81;21079;-76
2022/10/12 05:11:41;;;;;;;17.05;8.43;;;;;;;2.90;100.00;101357.98;1753347;81;21018;-75
2022/10/12 05:14:09;;;;;;;21.00;8.78;;;;;;;3.00;100.00;101358.41;1755520;81;21522;-75
2022/10/12 05:16:36;;;;;;;17.05;7.83;;;;;;;3.13;100.00;101361.84;1750477;81;21119;-75
2022/10/12 05:19:03;;;;;;;14.03;7.65;;;;;;;3.25;100.00;101363.11;1753306;81;21495;-75
2022/10/12 05:21:30;;;;;;;15.48;8.13;;;;;;;3.37;100.00;101370.73;1742500;81;21087;-75
2022/10/12 05:23:57;;;;;;;14.38;7.70;;;;;;;3.50;100.00;101377.09;1756302;81;21035;-75
2022/10/12 05:26:24;;;;;;;15.13;7.75;;;;;;;3.61;100.00;101381.76;1750017;81;21562;-75
2022/10/12 05:28:52;;;;;;;14.07;7.35;;;;;;;3.70;100.00;101380.89;1749851;81;21008;-75
2022/10/12 05:31:19;;;;;;;16.67;7.47;;;;;;;3.80;100.00;101385.95;1754501;81;21023;-75
2022/10/12 05:33:45;;;;;;;14.43;7.80;;;;;;;3.90;100.00;101394.86;1755643;81;21000;-75
2022/10/12 05:36:12;;;;;;;18.20;7.35;;;;;;;3.99;100.00;101391.88;1751035;81;21028;-75
2022/10/12 05:38:40;;;;;;;12.13;6.80;;;;;;;4.09;100.00;101395.22;1753651;80;21765;-75
2022/10/12 05:41:07;;;;;;;13.13;6.33;;;;;;;4.23;100.00;101400.70;1747767;81;21015;-75
2022/10/12 05:43:34;;;;;;;17.35;6.83;;;;;;;4.33;100.00;101404.91;1746090;81;21004;-75
2022/10/12 05:46:01;;;;;;;12.25;6.10;;;;;;;4.46;100.00;101407.84;1751140;81;20993;-75
2022/10/12 05:48:29;;;;;;;10.85;5.75;;;;;;;4.58;100.00;101407.79;1755951;81;21036;-75
2022/10/12 05:50:56;;;;;;;12.45;6.37;;;;;;;4.69;100.00;101405.61;1749172;81;21007;-75
2022/10/12 05:53:24;;;;;;;12.30;6.70;;;;;;;4.78;100.00;101415.31;1752938;81;21047;-75
2022/10/12 05:55:55;;;;;;;10.98;6.00;;;;;;;4.95;100.00;101420.34;1747480;81;21063;-75
2022/10/12 05:58:24;;;;;;;11.25;6.50;;;;;;;5.10;100.00;101433.41;1746412;81;21003;-75
2022/10/12 06:00:51;;;;;;;9.78;5.72;;;;;;;5.28;100.00;101440.10;1744253;81;21027;-75
2022/10/12 06:03:18;;;;;;;11.18;5.72;;;;;;;5.45;100.00;101448.06;1748606;81;21016;-75
2022/10/12 06:05:46;;;;;;;13.10;5.53;;;;;;;5.56;100.00;101456.06;1748925;81;21048;-75
2022/10/12 06:08:13;;;;;;;10.80;6.28;;;;;;;5.66;100.00;101461.95;1748852;81;21030;-75
2022/10/12 06:10:48;;;;;;;10.23;5.70;;;;;;;5.77;100.00;101456.30;1748015;82;20988;-75
2022/10/12 06:13:16;;;;;;;12.82;6.80;;;;;;;5.95;100.00;101464.70;1747293;81;21048;-76
2022/10/12 06:15:47;;;;;;;16.20;7.42;;;;;;;6.04;100.00;101469.70;1748351;81;21031;-75
2022/10/12 06:18:15;;;;;;;13.08;6.92;;;;;;;6.16;100.00;101476.00;1753465;81;21105;-75
2022/10/12 06:20:50;;;;;;;14.20;6.47;;;;;;;6.32;100.00;101479.22;1752655;81;21057;-76
2022/10/12 06:23:17;;;;;;;13.98;6.87;;;;;;;6.44;100.00;101479.52;1733140;81;21086;-75
2022/10/12 06:25:49;;;;;;;14.93;6.55;;;;;;;6.53;100.00;101483.67;1728738;81;21524;-75
2022/10/12 06:28:23;;;;;;;12.25;6.67;;;;;;;6.68;100.00;101485.23;1736091;81;21023;-76
2022/10/12 06:30:56;;;;;;;13.53;6.65;;;;;;;6.85;100.00;101483.72;1722216;82;21105;-75
2022/10/12 06:33:26;;;;;;;12.78;7.78;;;;;;;6.99;100.00;101484.38;1733279;82;21519;-75
2022/10/12 06:35:54;;;;;;;15.08;7.67;;;;;;;7.08;100.00;101487.27;1729132;82;21057;-75
2022/10/12 06:38:21;;;;;;;14.58;7.17;;;;;;;7.25;100.00;101490.42;1727654;82;21072;-75
2022/10/12 06:40:52;;;;;;;12.73;7.12;;;;;;;7.45;100.00;101493.14;1728597;82;21060;-75
2022/10/12 06:43:21;;;;;;;13.05;7.17;;;;;;;7.60;100.00;101494.16;1730263;82;21559;-75
2022/10/12 06:45:48;;;;;;;14.35;7.10;;;;;;;7.73;100.00;101497.39;1729270;82;21654;-75
2022/10/12 06:48:15;;;;;;;14.55;7.47;;;;;;;7.85;100.00;101498.88;1724524;82;21043;-75
2022/10/12 06:50:42;;;;;;;15.68;7.62;;;;;;;8.02;100.00;101504.58;1727234;82;21607;-75
2022/10/12 06:53:09;;;;;;;14.63;7.47;;;;;;;8.17;100.00;101506.02;1726871;82;21050;-75
2022/10/12 06:55:39;;;;;;;16.60;7.55;;;;;;;8.28;100.00;101508.41;1727195;82;21111;-75
2022/10/12 06:58:06;;;;;;;14.70;7.78;;;;;;;8.38;100.00;101510.77;1727854;82;21622;-75
2022/10/12 07:00:33;;;;;;;14.90;8.10;;;;;;;8.55;100.00;101519.89;1723172;82;21118;-75
2022/10/12 07:03:00;;;;;;;16.42;8.35;;;;;;;8.71;100.00;101515.30;1725541;82;21030;-76
2022/10/12 07:05:27;;;;;;;15.72;7.83;;;;;;;8.89;100.00;101513.64;1727148;82;21542;-75
2022/10/12 07:07:54;;;;;;;16.73;7.47;;;;;;;9.00;100.00;101510.42;1727132;82;21048;-75
2022/10/12 07:10:22;;;;;;;13.78;7.28;;;;;;;9.17;100.00;101518.20;1727721;82;21062;-75
2022/10/12 07:12:49;;;;;;;14.15;6.87;;;;;;;9.32;100.00;101520.85;1725325;82;21055;-75
2022/10/12 07:15:17;;;;;;;11.38;6.40;;;;;;;9.53;100.00;101525.92;1732142;82;21036;-75
2022/10/12 07:17:44;;;;;;;10.95;6.67;;;;;;;9.66;100.00;101520.91;1727054;82;21591;-75
2022/10/12 07:20:11;;;;;;;9.93;5.90;;;;;;;9.82;100.00;101529.94;1731104;82;21043;-75
2022/10/12 07:22:40;;;;;;;9.13;4.75;;;;;;;9.93;100.00;101528.37;1724027;82;21587;-75
2022/10/12 07:25:08;;;;;;;9.88;4.60;;;;;;;10.17;100.00;101544.92;1722532;82;21019;-75
2022/10/12 07:27:35;;;;;;;5.58;3.35;;;;;;;10.38;100.00;101553.00;1727786;82;21088;-75
2022/10/12 07:30:03;;;;;;;6.65;3.77;;;;;;;10.63;100.00;101569.94;1727158;82;21575;-76
2022/10/12 07:32:30;;;;;;;6.05;3.42;;;;;;;10.90;100.00;101583.77;1727639;82;21088;-74
2022/10/12 07:34:57;;;;;;;7.92;3.42;;;;;;;11.20;100.00;101601.38;1731626;82;21059;-75
2022/10/12 07:37:24;;;;;;;5.58;3.20;;;;;;;11.39;100.00;101607.27;1730774;82;21012;-74
2022/10/12 07:39:55;;;;;;;5.87;3.27;;;;;;;11.65;100.00;101614.67;1731441;82;21035;-74
2022/10/12 07:42:20;;;;;;;8.05;3.67;;;;;;;11.83;100.00;101611.06;1726271;82;21031;-75
2022/10/12 07:44:47;;;;;;;7.20;3.10;;;;;;;11.97;100.00;101610.66;1727361;82;21561;-75
2022/10/12 07:47:16;;;;;;;5.17;3.30;;;;;;;12.15;100.00;101600.64;1723859;82;21101;-75
2022/10/12 07:49:43;;;;;;;4.78;2.83;;;;;;;12.23;100.00;101598.19;1730171;82;21095;-74
2022/10/12 07:52:10;;;;;;;5.08;2.75;;;;;;;12.35;100.00;101603.84;1724289;82;21548;-75
2022/10/12 07:54:37;;;;;;;4.42;2.92;;;;;;;12.38;100.00;101600.69;1730781;82;21036;-75
2022/10/12 07:57:04;;;;;;;4.65;2.62;;;;;;;12.51;100.00;101600.27;1734912;82;21091;-75
2022/10/12 07:59:31;;;;;;;5.58;2.70;;;;;;;12.68;100.00;101607.45;1727282;82;21567;-75
2022/10/12 08:01:58;;;;;;;4.97;2.22;;;;;;;12.76;100.00;101610.60;1725558;82;21035;-74
2022/10/12 08:04:25;;;;;;;3.62;2.75;;;;;;;12.98;100.00;101617.97;1725789;82;21079;-74
2022/10/12 08:06:53;;;;;;;5.65;2.90;;;;;;;13.14;100.00;101616.97;1729287;82;21089;-75
2022/10/12 08:09:19;;;;;;;6.45;2.27;;;;;;;13.26;100.00;101610.92;1728038;82;21053;-74
2022/10/12 08:11:46;;;;;;;2.70;2.17;;;;;;;13.45;100.00;101615.00;1724164;83;21067;-75
2022/10/12 08:14:15;;;;;;;1.60;1.37;;;;;;;13.50;100.00;101616.95;1731260;82;21016;-75
2022/10/12 08:16:43;;;;;;;4.03;1.62;;;;;;;13.59;100.00;101621.31;1725047;82;21063;-74
2022/10/12 08:19:11;;;;;;;6.47;1.95;;;;;;;13.67;98.79;101622.78;1733680;83;21036;-74
2022/10/12 08:21:38;;;;;;;3.52;1.87;;;;;;;13.62;90.73;101625.52;1723785;82;21067;-73
2022/10/12 08:24:06;;;;;;;3.00;1.90;;;;;;;13.68;93.72;101622.69;1730916;82;21050;-75
2022/10/12 08:26:33;;;;;;;3.65;1.62;;;;;;;13.68;98.54;101624.45;1732319;82;21044;-75
2022/10/12 08:29:02;;;;;;;5.53;2.05;;;;;;;13.70;100.00;101620.89;1732059;82;21566;-76
2022/10/12 08:31:30;;;;;;;2.58;2.00;;;;;;;13.68;100.00;101625.28;1725726;82;21609;-75
2022/10/12 08:33:57;;;;;;;4.97;1.95;;;;;;;13.65;100.00;101634.94;1724261;82;21097;-75
2022/10/12 08:36:24;;;;;;;5.67;2.20;;;;;;;13.75;100.00;101628.03;1726570;82;21030;-76
2022/10/12 08:38:54;;;;;;;3.15;2.00;;;;;;;13.89;100.00;101621.02;1725620;82;21032;-76
2022/10/12 08:41:41;;;;;;;5.33;2.45;;;;;;;13.99;100.00;101623.63;1728168;82;21028;-75
2022/10/12 08:44:37;;;;;;;4.22;2.50;;;;;;;14.08;100.00;101621.56;1731980;82;21085;-75
2022/10/12 08:47:19;;;;;;;5.17;2.40;;;;;;;14.09;100.00;101621.52;1634090;86;21581;-74
2022/10/12 08:49:50;;;;;;;5.90;2.90;;;;;;;14.15;100.00;101615.21;1701520;82;21549;-75
2022/10/12 08:52:29;;;;;;;3.33;2.70;;;;;;;14.24;100.00;101610.96;1727621;82;21483;-73
2022/10/12 08:55:02;;;;;;;5.47;2.62;;;;;;;14.25;100.00;101613.92;1722056;82;21039;-74
2022/10/12 08:57:29;;;;;;;5.03;2.27;;;;;;;14.19;100.00;101609.00;1727606;82;21095;-75
2022/10/12 08:59:57;;;;;;;4.08;2.67;;;;;;;14.19;100.00;101608.57;1741367;82;21007;-74
2022/10/12 09:02:47;;;;;;;4.05;2.90;;;;;;;14.34;100.00;101609.67;1724546;82;21633;-73
2022/10/12 09:05:18;;;;;;;3.95;2.70;;;;;;;14.42;100.00;101610.18;1729208;82;21071;-75
2022/10/12 09:08:00;;;;;;;6.05;3.00;;;;;;;14.52;100.00;101607.21;1734928;83;21111;-74
2022/10/12 09:10:46;;;;;;;5.33;2.45;;;;;;;14.57;100.00;101604.81;1727413;82;21118;-75
2022/10/12 09:13:31;;;;;;;5.45;3.17;;;;;;;14.68;100.00;101603.51;1729686;82;21526;-74
2022/10/12 09:16:02;;;;;;;4.72;2.52;;;;;;;14.67;100.00;101596.66;1721404;82;21586;-74
2022/10/12 09:18:38;;;;;;;5.60;2.87;;;;;;;14.68;100.00;101598.33;1730201;82;21040;-73
2022/10/12 09:21:16;;;;;;;6.72;2.90;;;;;;;14.84;100.00;101600.63;1722854;82;21284;-74
2022/10/12 09:23:44;;;;;;;4.00;2.62;;;;;;;14.98;100.00;101596.98;1725591;82;21518;-75
2022/10/12 09:26:18;;;;;;;5.58;2.52;;;;;;;15.03;98.59;101595.47;1729254;82;21063;-74
2022/10/12 09:28:55;;;;;;;4.92;2.20;;;;;;;15.11;97.77;101591.23;1733963;82;21124;-75
2022/10/12 09:31:39;;;;;;;5.83;3.10;;;;;;;15.24;100.00;101585.85;1735512;81;21528;-74
2022/10/12 09:34:09;;;;;;;10.95;2.98;;;;;;;15.24;95.65;101596.23;1730155;82;21009;-74
2022/10/12 09:36:39;;;;;;;4.67;2.70;;;;;;;15.19;93.93;101578.30;1737945;82;21068;-73
2022/10/12 09:39:18;;;;;;;4.25;2.62;;;;;;;15.26;96.11;101578.84;1733490;82;22039;-74
2022/10/12 09:41:48;;;;;;;5.58;2.50;;;;;;;15.31;95.07;101583.38;1729284;82;21036;-75
2022/10/12 09:44:39;;;;;;;4.72;2.30;;;;;;;15.41;92.59;101586.38;1726471;82;21106;-74
2022/10/12 09:47:31;;;;;;;4.35;2.25;;;;;;;15.43;86.03;101585.39;1728482;82;21071;-74
2022/10/12 09:50:05;;;;;;;4.85;2.40;;;;;;;15.54;86.94;101585.33;1727955;82;21078;-75
2022/10/12 09:52:42;;;;;;;5.08;2.55;;;;;;;15.61;91.35;101588.00;1732354;82;21111;-75
2022/10/12 09:55:20;;;;;;;3.58;2.45;;;;;;;15.88;90.53;101579.85;1729978;82;21099;-75
2022/10/12 09:57:58;;;;;;;6.28;2.70;;;;;;;15.99;82.26;101577.55;1733783;82;21570;-74
2022/10/12 10:00:31;;;;;;;6.10;2.80;;;;;;;16.19;73.38;101579.14;1727421;82;20984;-75
2022/10/12 10:03:00;;;;;;;4.05;2.50;;;;;;;16.50;68.61;101569.30;1725834;82;21031;-74
2022/10/12 10:05:35;;;;;;;3.75;2.40;;;;;;;16.80;68.97;101573.83;1727509;82;21020;-74
2022/10/12 10:08:23;;;;;;;5.28;2.58;;;;;;;16.95;65.39;101569.14;1735392;83;21048;-75
2022/10/12 10:10:55;;;;;;;4.72;2.60;;;;;;;17.16;66.61;101571.50;1732729;82;21007;-74
2022/10/12 10:13:31;;;;;;;4.72;2.65;;;;;;;17.39;63.05;101565.84;1729475;82;21051;-74
2022/10/12 10:16:07;;;;;;;7.60;2.85;;;;;;;17.42;62.30;101566.16;1747686;81;21039;-74
2022/10/12 10:18:43;;;;;;;4.87;2.75;;;;;;;17.42;60.13;101564.38;1748892;82;21015;-74
2022/10/12 10:21:16;;;;;;;4.75;2.30;;;;;;;17.42;59.20;101560.48;1745041;82;21047;-75
2022/10/12 10:23:57;;;;;;;5.05;2.75;;;;;;;17.50;70.75;101553.98;1723500;81;20995;-75
2022/10/12 10:26:26;;;;;;;5.50;3.08;;;;;;;17.55;68.83;101551.50;1741102;81;21598;-74
2022/10/12 10:29:16;;;;;;;6.08;2.92;;;;;;;17.71;60.91;101555.84;1726820;82;21009;-74
2022/10/12 10:31:45;;;;;;;7.47;3.52;;;;;;;17.69;63.84;101550.72;1733410;82;21636;-74
2022/10/12 10:34:25;;;;;;;5.62;2.90;;;;;;;17.57;61.64;101545.74;1626599;87;21795;-74
2022/10/12 10:36:55;;;;;;;8.00;3.30;;;;;;;17.42;67.26;101544.86;1616607;88;21627;-74
2022/10/12 10:39:33;;;;;;;4.50;3.30;;;;;;;17.35;67.45;101539.61;1616193;86;21044;-74
2022/10/12 10:42:20;;;;;;;6.12;3.42;;;;;;;17.41;61.98;101547.07;1644709;87;22301;-75
2022/10/12 10:45:07;;;;;;;6.53;3.37;;;;;;;17.42;72.89;101538.83;1638970;86;21551;-75
2022/10/12 10:47:42;;;;;;;5.20;3.55;;;;;;;17.11;71.00;101545.74;1618397;88;21520;-75
2022/10/12 10:50:24;;;;;;;6.10;3.62;;;;;;;16.87;67.65;101537.95;1607293;88;21106;-75
2022/10/12 10:53:01;;;;;;;6.47;3.47;;;;;;;16.82;66.48;101540.80;1614897;88;21119;-75
2022/10/12 10:55:49;;;;;;;6.25;3.30;;;;;;;16.76;67.30;101528.94;1587265;89;21612;-76
2022/10/12 10:58:33;;;;;;;7.00;3.22;;;;;;;16.75;65.73;101532.47;1554053;89;21083;-76
2022/10/12 11:01:20;;;;;;;5.45;2.85;;;;;;;16.71;69.67;101525.76;1563104;89;21151;-75
2022/10/12 11:04:02;;;;;;;5.33;3.45;;;;;;;16.71;70.69;101530.96;1615610;86;21128;-77
2022/10/12 11:06:52;;;;;;;6.30;2.70;;;;;;;16.68;76.20;101520.70;1602857;87;21072;-76
2022/10/12 11:09:40;;;;;;;5.55;3.02;;;;;;;16.75;69.61;101522.55;1595627;88;21123;-75
2022/10/12 11:12:13;;;;;;;4.95;2.85;;;;;;;16.79;69.38;101520.98;1555550;90;21145;-76
2022/10/12 11:14:54;;;;;;;14.85;3.15;;;;;;;16.73;67.88;101525.69;1573435;90;21164;-75
2022/10/12 11:17:33;;;;;;;4.72;3.22;;;;;;;16.66;65.61;101524.32;1573212;90;21095;-76
2022/10/12 11:20:32;;;;;;;5.53;3.17;;;;;;;16.66;70.09;101516.05;1559951;90;21118;-75
2022/10/12 11:23:25;;;;;;;5.62;3.00;;;;;;;16.76;71.29;101515.11;1562963;90;21405;-74
2022/10/12 11:26:16;;;;;;;5.90;3.20;;;;;;;16.76;70.33;101522.44;1570444;90;21524;-72
2022/10/12 11:28:43;;;;;;;5.37;3.00;;;;;;;16.73;69.19;101515.28;1569793;90;21166;-73
2022/10/12 11:31:20;;;;;;;6.65;2.98;;;;;;;16.71;69.76;101523.16;1586431;89;21143;-73
2022/10/12 11:33:48;;;;;;;6.33;3.22;;;;;;;16.72;74.77;101518.32;1578874;89;21197;-74
2022/10/12 11:36:22;;;;;;;5.65;2.62;;;;;;;16.62;70.75;101509.34;1580035;90;21497;-74
2022/10/12 11:39:01;;;;;;;7.17;3.25;;;;;;;16.63;79.95;101511.86;1585734;88;21040;-74
2022/10/12 11:41:47;;;;;;;4.65;2.90;;;;;;;16.67;79.36;101509.12;1609758;87;21099;-74